Becks Mills, Ohio
Current Conditions -  °F | °C
As of 4:56 PM on Monday 20 Oct 2014 (Local Time) from KBJJ Reporting Station
Overcast Overcast  
Wind Chill: 58°   Ceiling: 8000
Heat Index: 58°   Visibility: 10mi
Dew Point: 45°   Wind: 13mph
Humidity: 62%   Direction: 230°SW
Pressure: 29.84"   Gusts: NA
Location:  40.5444°N, 81.851°W
Report Text: KBJJ 202056Z AUTO 23011KT 10SM SCT036 SCT060 OVC080 14/07 A2984 RMK AO2 SLP105 60001 T01440072 55008 TSNO
Loading
Personal Weather Stations






























Interactive Weather Map
Tropical Storm Tracking
New forecast layout! Learn more

10-Day Weather Forecast

Advertisements
Track Severe Weather on mobile